Vernicos Master — SVA2352 — position and weather

sailwx.info

Track history (hours):
 
Tides and Currents Weather Stations Pressure Air Temp Water Temp Dewpoint Dewpoint Depression Visibility Wind Speed Wind Dir Waves Ship Positions

Vernicos Master

Last reported at 2016-Dec-01 13:34 UTC. Time now 2016-Dec-03 13:45 UTC.
Position N 40°38' E 022°54'.

Length 28 m; draft 3.8 m.

Type: Tug. MMSI: 240917000.

Date/timePositionNaut miles runAvg speedWind from/ knotsBaromVisibWave heightAir tempDewpointWater temp
2016-Dec-01 13:34N 40°38' E 022°54'2 1.6
2016-Dec-01 12:33N 40°38' E 022°56'0 0.0
2016-Dec-01 11:33N 40°38' E 022°56'1 1.1
2016-Dec-01 10:33N 40°38' E 022°54'1 1.1
2016-Dec-01 09:33N 40°38' E 022°56'2 1.6
2016-Dec-01 08:33N 40°37' E 022°56'0 0.0
2016-Dec-01 07:33N 40°37' E 022°56'0 0.0
2016-Dec-01 06:33N 40°37' E 022°56'0 0.0
2016-Dec-01 05:33N 40°37' E 022°56'0 0.0
2016-Dec-01 04:31N 40°37' E 022°56'0 0.0
2016-Dec-01 03:34N 40°37' E 022°56'0 0.0
2016-Dec-01 02:33N 40°37' E 022°56'0 0.0
2016-Dec-01 01:34N 40°37' E 022°56'0 0.0
2016-Dec-01 00:33N 40°37' E 022°56'0 0.0
2016-Nov-30 23:33N 40°37' E 022°56'2 1.8
2016-Nov-30 22:33N 40°38' E 022°54'0 0.2
2016-Nov-30 21:33N 40°38' E 022°54'1 0.6
2016-Nov-30 20:33N 40°38' E 022°55'1 0.5
2016-Nov-30 19:33N 40°38' E 022°56'0 0.0
2016-Nov-29 11:33N 40°38' E 022°56'0 0.0
2016-Nov-29 10:33N 40°38' E 022°56'0 0.0
2016-Nov-29 09:33N 40°38' E 022°56'0 0.0
2016-Nov-29 08:33N 40°38' E 022°56'2 1.6
2016-Nov-29 07:33N 40°38' E 022°54'0 0.1
2016-Nov-29 06:33N 40°38' E 022°54'2 1.6
2016-Nov-29 05:33N 40°38' E 022°56'0 0.0
2016-Nov-29 04:33N 40°38' E 022°56'0 0.0
2016-Nov-29 03:33N 40°38' E 022°56'0 0.0
2016-Nov-29 02:34N 40°38' E 022°56'0 0.0
2016-Nov-29 01:34N 40°38' E 022°56'0 0.0
2016-Nov-29 00:34N 40°38' E 022°56'0 0.0
2016-Nov-28 23:34N 40°38' E 022°56'0 0.0
2016-Nov-28 22:33N 40°38' E 022°56'0 0.0
2016-Nov-28 21:34N 40°38' E 022°56'0 0.0
2016-Nov-28 20:34N 40°38' E 022°56'0 0.0
2016-Nov-28 19:33N 40°38' E 022°56'0 0.0
2016-Nov-28 18:33N 40°38' E 022°56'0 0.0
2016-Nov-28 17:33N 40°38' E 022°56'0 0.0
2016-Nov-28 16:33N 40°38' E 022°56'0 0.0
2016-Nov-28 15:34N 40°38' E 022°56'0 0.0
2016-Nov-28 14:34N 40°38' E 022°56'0 0.0
2016-Nov-28 09:34N 40°38' E 022°56'0 0.0
2016-Nov-28 08:34N 40°38' E 022°56'0 0.0
2016-Nov-28 07:34N 40°38' E 022°56'2 1.9
2016-Nov-28 06:33N 40°38' E 022°53'0 0.0
2016-Nov-28 05:33N 40°38' E 022°53'0 0.0
2016-Nov-28 04:33N 40°38' E 022°53'2 1.9
2016-Nov-28 03:33N 40°38' E 022°56'0 0.0
2016-Nov-28 02:33N 40°38' E 022°56'0 0.0
2016-Nov-28 01:33N 40°38' E 022°56'0 0.0
2016-Nov-28 00:33N 40°38' E 022°56'0 0.0
2016-Nov-27 23:33N 40°38' E 022°56'0 0.0
2016-Nov-27 22:33N 40°38' E 022°56'0 0.0
2016-Nov-27 21:34N 40°38' E 022°56'0 0.0
2016-Nov-27 20:34N 40°38' E 022°56'0 0.0
2016-Nov-27 19:34N 40°38' E 022°56'2 0.9
2016-Nov-27 17:15N 40°38' E 022°53'0 0.0
2016-Nov-27 16:33N 40°38' E 022°53'0 0.0
2016-Nov-27 15:33N 40°38' E 022°53'0 0.0
2016-Nov-27 14:33N 40°38' E 022°53'0 0.0
2016-Nov-27 13:33N 40°38' E 022°53'0 0.0
2016-Nov-27 12:33N 40°38' E 022°53'0 0.0
2016-Nov-27 11:33N 40°38' E 022°53'2 2.0
2016-Nov-27 10:33N 40°38' E 022°56'2 1.7
2016-Nov-27 09:34N 40°38' E 022°54'0 0.4
2016-Nov-27 08:33N 40°38' E 022°54'1 0.8
2016-Nov-27 07:33N 40°38' E 022°55'1 0.7
2016-Nov-27 06:33N 40°38' E 022°56'0 0.0
2016-Nov-27 05:33N 40°38' E 022°56'0 0.0
2016-Nov-27 04:33N 40°38' E 022°56'2 2.0
2016-Nov-27 03:33N 40°37' E 022°54'0 0.0
2016-Nov-27 02:33N 40°37' E 022°54'0 0.0
2016-Nov-27 01:33N 40°37' E 022°54'0 0.0
2016-Nov-27 00:33N 40°37' E 022°54'0 0.0
2016-Nov-26 23:33N 40°37' E 022°54'0 0.0
2016-Nov-26 22:33N 40°37' E 022°54'0 0.0
2016-Nov-26 21:33N 40°37' E 022°54'0 0.0
2016-Nov-26 20:33N 40°37' E 022°54'0 0.0
2016-Nov-26 19:33N 40°37' E 022°54'0 0.0
2016-Nov-26 18:33N 40°37' E 022°54'0 0.0
2016-Nov-26 17:33N 40°37' E 022°54'0 0.0
2016-Nov-26 16:33N 40°37' E 022°54'0 0.0
2016-Nov-26 15:33N 40°37' E 022°54'0 0.0
2016-Nov-26 14:33N 40°37' E 022°54'0 0.0
2016-Nov-26 13:33N 40°37' E 022°54'0 0.0
2016-Nov-26 12:33N 40°37' E 022°54'0 0.0
2016-Nov-26 11:33N 40°37' E 022°54'0 0.0
2016-Nov-26 10:33N 40°37' E 022°54'0 0.0
2016-Nov-26 09:33N 40°37' E 022°54'0 0.3
2016-Nov-26 08:33N 40°37' E 022°54'0 0.1
2016-Nov-26 07:33N 40°37' E 022°54'0 0.3
2016-Nov-26 06:33N 40°37' E 022°54'1 1.0
2016-Nov-26 05:34N 40°38' E 022°53'0 0.4
2016-Nov-26 04:33N 40°38' E 022°53'0 0.0
2016-Nov-26 03:33N 40°38' E 022°53'0 0.0
2016-Nov-26 02:33N 40°38' E 022°53'0 0.0
2016-Nov-26 01:33N 40°38' E 022°53'0 0.0
2016-Nov-26 00:33N 40°38' E 022°53'0 0.0
2016-Nov-25 23:33N 40°38' E 022°53'0 0.0
2016-Nov-25 22:33N 40°38' E 022°53'0 0.0
2016-Nov-25 21:33N 40°38' E 022°53'0 0.0
2016-Nov-25 20:33N 40°38' E 022°53'0 0.0
2016-Nov-25 19:33N 40°38' E 022°53'0 0.0
2016-Nov-25 18:33N 40°38' E 022°53'0 0.0
2016-Nov-25 17:33N 40°38' E 022°53'0 0.0
2016-Nov-25 16:33N 40°38' E 022°53'0 0.0
2016-Nov-25 15:33N 40°38' E 022°53'0 0.0
2016-Nov-25 14:33N 40°38' E 022°53'0 0.0
2016-Nov-25 13:33N 40°38' E 022°53'0 0.0
2016-Nov-25 12:33N 40°38' E 022°53'0 0.0
2016-Nov-25 11:33N 40°38' E 022°53'1 1.0
2016-Nov-25 10:33N 40°38' E 022°54'1 1.0
2016-Nov-25 09:34N 40°37' E 022°53'2 1.6
2016-Nov-25 08:33N 40°38' E 022°55'0 0.3
2016-Nov-25 07:33N 40°38' E 022°56'0 0.0
2016-Nov-25 06:33N 40°38' E 022°56'0 0.0
2016-Nov-25 05:33N 40°38' E 022°56'0 0.0
2016-Nov-25 04:33N 40°38' E 022°56'0 0.0
2016-Nov-25 03:33N 40°38' E 022°56'0 0.0
2016-Nov-25 02:33N 40°38' E 022°56'0 0.0
2016-Nov-25 01:33N 40°38' E 022°56'0 0.0
2016-Nov-25 00:33N 40°38' E 022°56'0 0.0
2016-Nov-24 23:33N 40°38' E 022°56'0 0.0
2016-Nov-24 22:33N 40°38' E 022°56'0 0.0
2016-Nov-24 21:33N 40°38' E 022°56'0 0.0
2016-Nov-24 20:33N 40°38' E 022°56'0 0.0
2016-Nov-24 19:33N 40°38' E 022°56'0 0.0
2016-Nov-24 18:33N 40°38' E 022°56'0 0.0
2016-Nov-24 11:23N 40°38' E 022°56'0 0.0
2016-Nov-24 10:33N 40°38' E 022°56'0 0.0
2016-Nov-24 09:33N 40°38' E 022°56'1 1.3
2016-Nov-24 08:31N 40°38' E 022°54'0 0.2
2016-Nov-24 07:33N 40°38' E 022°54'1 0.6
2016-Nov-24 06:33N 40°38' E 022°53'0 0.2
2016-Nov-24 05:33N 40°38' E 022°53'2 2.0
2016-Nov-24 04:33N 40°38' E 022°56'0 0.0
2016-Nov-24 03:33N 40°38' E 022°56'0 0.0
2016-Nov-24 02:33N 40°38' E 022°56'0 0.0
2016-Nov-24 01:33N 40°38' E 022°56'0 0.0
2016-Nov-24 00:33N 40°38' E 022°56'0 0.0
2016-Nov-23 23:33N 40°38' E 022°56'0 0.0
2016-Nov-23 22:33N 40°38' E 022°56'1 1.0
2016-Nov-23 21:33N 40°38' E 022°54'1 1.0
2016-Nov-23 20:33N 40°38' E 022°56'0 0.0
2016-Nov-23 19:33N 40°38' E 022°56'0 0.0
2016-Nov-23 18:33N 40°38' E 022°56'0 0.0
2016-Nov-23 15:33N 40°38' E 022°56'0 0.0
2016-Nov-23 14:34N 40°38' E 022°56'0 0.0
2016-Nov-23 13:34N 40°38' E 022°56'0 0.0
2016-Nov-23 12:33N 40°38' E 022°56'2 1.7
2016-Nov-23 11:33N 40°38' E 022°53'1 0.5
2016-Nov-23 10:33N 40°38' E 022°53'0 0.0
2016-Nov-23 09:33N 40°38' E 022°53'0 0.0
2016-Nov-23 08:33N 40°38' E 022°53'0 0.0
2016-Nov-23 07:33N 40°38' E 022°53'0 0.0
2016-Nov-23 06:34N 40°38' E 022°53'2 0.7
2016-Nov-23 03:34N 40°38' E 022°56'0 0.0
2016-Nov-23 02:34N 40°38' E 022°56'0 0.0
2016-Nov-23 00:33N 40°38' E 022°56'0 0.0
2016-Nov-22 23:33N 40°38' E 022°56'0 0.0
2016-Nov-22 22:33N 40°38' E 022°56'0 0.0
2016-Nov-22 20:33N 40°38' E 022°56'0 0.0
2016-Nov-22 19:33N 40°38' E 022°56'0 0.0
2016-Nov-22 17:33N 40°38' E 022°56'0 0.0
2016-Nov-22 16:34N 40°38' E 022°56'0 0.0
2016-Nov-22 15:33N 40°38' E 022°56'0 0.0
2016-Nov-22 14:34N 40°38' E 022°56'0 0.0
2016-Nov-22 13:34N 40°38' E 022°56'2 0.6
2016-Nov-22 10:33N 40°38' E 022°53'0 0.2
2016-Nov-22 09:33N 40°38' E 022°53'0 0.0
2016-Nov-22 08:33N 40°38' E 022°53'0 0.0
2016-Nov-22 07:33N 40°38' E 022°53'0 0.0
2016-Nov-22 05:33N 40°38' E 022°53'0 0.0
2016-Nov-22 04:33N 40°38' E 022°53'2 2.0
2016-Nov-22 03:33N 40°38' E 022°56'0 0.0
2016-Nov-22 02:33N 40°38' E 022°56'0 0.0
2016-Nov-21 23:33N 40°38' E 022°56'0 0.0
2016-Nov-21 21:33N 40°38' E 022°56'0 0.0
2016-Nov-21 14:33N 40°38' E 022°56'  
Track history (hours):
 
Tides and Currents Weather Stations Pressure Air Temp Water Temp Dewpoint Dewpoint Depression Visibility Wind Speed Wind Dir Waves Ship Positions

Vernicos Master

Last reported at 2016-Dec-01 13:34 UTC. Time now 2016-Dec-03 13:45 UTC.
Position N 40°38' E 022°54'.

Length 28 m; draft 3.8 m.

Type: Tug. MMSI: 240917000.

Date/timePositionNaut miles runAvg speedWind from/ knotsBaromVisibWave heightAir tempDewpointWater temp
2016-Dec-01 13:34N 40°38' E 022°54'2 1.6
2016-Dec-01 12:33N 40°38' E 022°56'0 0.0
2016-Dec-01 11:33N 40°38' E 022°56'1 1.1
2016-Dec-01 10:33N 40°38' E 022°54'1 1.1
2016-Dec-01 09:33N 40°38' E 022°56'2 1.6
2016-Dec-01 08:33N 40°37' E 022°56'0 0.0
2016-Dec-01 07:33N 40°37' E 022°56'0 0.0
2016-Dec-01 06:33N 40°37' E 022°56'0 0.0
2016-Dec-01 05:33N 40°37' E 022°56'0 0.0
2016-Dec-01 04:31N 40°37' E 022°56'0 0.0
2016-Dec-01 03:34N 40°37' E 022°56'0 0.0
2016-Dec-01 02:33N 40°37' E 022°56'0 0.0
2016-Dec-01 01:34N 40°37' E 022°56'0 0.0
2016-Dec-01 00:33N 40°37' E 022°56'0 0.0
2016-Nov-30 23:33N 40°37' E 022°56'2 1.8
2016-Nov-30 22:33N 40°38' E 022°54'0 0.2
2016-Nov-30 21:33N 40°38' E 022°54'1 0.6
2016-Nov-30 20:33N 40°38' E 022°55'1 0.5
2016-Nov-30 19:33N 40°38' E 022°56'0 0.0
2016-Nov-29 11:33N 40°38' E 022°56'0 0.0
2016-Nov-29 10:33N 40°38' E 022°56'0 0.0
2016-Nov-29 09:33N 40°38' E 022°56'0 0.0
2016-Nov-29 08:33N 40°38' E 022°56'2 1.6
2016-Nov-29 07:33N 40°38' E 022°54'0 0.1
2016-Nov-29 06:33N 40°38' E 022°54'2 1.6
2016-Nov-29 05:33N 40°38' E 022°56'0 0.0
2016-Nov-29 04:33N 40°38' E 022°56'0 0.0
2016-Nov-29 03:33N 40°38' E 022°56'0 0.0
2016-Nov-29 02:34N 40°38' E 022°56'0 0.0
2016-Nov-29 01:34N 40°38' E 022°56'0 0.0
2016-Nov-29 00:34N 40°38' E 022°56'0 0.0
2016-Nov-28 23:34N 40°38' E 022°56'0 0.0
2016-Nov-28 22:33N 40°38' E 022°56'0 0.0
2016-Nov-28 21:34N 40°38' E 022°56'0 0.0
2016-Nov-28 20:34N 40°38' E 022°56'0 0.0
2016-Nov-28 19:33N 40°38' E 022°56'0 0.0
2016-Nov-28 18:33N 40°38' E 022°56'0 0.0
2016-Nov-28 17:33N 40°38' E 022°56'0 0.0
2016-Nov-28 16:33N 40°38' E 022°56'0 0.0
2016-Nov-28 15:34N 40°38' E 022°56'0 0.0
2016-Nov-28 14:34N 40°38' E 022°56'0 0.0
2016-Nov-28 09:34N 40°38' E 022°56'0 0.0
2016-Nov-28 08:34N 40°38' E 022°56'0 0.0
2016-Nov-28 07:34N 40°38' E 022°56'2 1.9
2016-Nov-28 06:33N 40°38' E 022°53'0 0.0
2016-Nov-28 05:33N 40°38' E 022°53'0 0.0
2016-Nov-28 04:33N 40°38' E 022°53'2 1.9
2016-Nov-28 03:33N 40°38' E 022°56'0 0.0
2016-Nov-28 02:33N 40°38' E 022°56'0 0.0
2016-Nov-28 01:33N 40°38' E 022°56'0 0.0
2016-Nov-28 00:33N 40°38' E 022°56'0 0.0
2016-Nov-27 23:33N 40°38' E 022°56'0 0.0
2016-Nov-27 22:33N 40°38' E 022°56'0 0.0
2016-Nov-27 21:34N 40°38' E 022°56'0 0.0
2016-Nov-27 20:34N 40°38' E 022°56'0 0.0
2016-Nov-27 19:34N 40°38' E 022°56'2 0.9
2016-Nov-27 17:15N 40°38' E 022°53'0 0.0
2016-Nov-27 16:33N 40°38' E 022°53'0 0.0
2016-Nov-27 15:33N 40°38' E 022°53'0 0.0
2016-Nov-27 14:33N 40°38' E 022°53'0 0.0
2016-Nov-27 13:33N 40°38' E 022°53'0 0.0
2016-Nov-27 12:33N 40°38' E 022°53'0 0.0
2016-Nov-27 11:33N 40°38' E 022°53'2 2.0
2016-Nov-27 10:33N 40°38' E 022°56'2 1.7
2016-Nov-27 09:34N 40°38' E 022°54'0 0.4
2016-Nov-27 08:33N 40°38' E 022°54'1 0.8
2016-Nov-27 07:33N 40°38' E 022°55'1 0.7
2016-Nov-27 06:33N 40°38' E 022°56'0 0.0
2016-Nov-27 05:33N 40°38' E 022°56'0 0.0
2016-Nov-27 04:33N 40°38' E 022°56'2 2.0
2016-Nov-27 03:33N 40°37' E 022°54'0 0.0
2016-Nov-27 02:33N 40°37' E 022°54'0 0.0
2016-Nov-27 01:33N 40°37' E 022°54'0 0.0
2016-Nov-27 00:33N 40°37' E 022°54'0 0.0
2016-Nov-26 23:33N 40°37' E 022°54'0 0.0
2016-Nov-26 22:33N 40°37' E 022°54'0 0.0
2016-Nov-26 21:33N 40°37' E 022°54'0 0.0
2016-Nov-26 20:33N 40°37' E 022°54'0 0.0
2016-Nov-26 19:33N 40°37' E 022°54'0 0.0
2016-Nov-26 18:33N 40°37' E 022°54'0 0.0
2016-Nov-26 17:33N 40°37' E 022°54'0 0.0
2016-Nov-26 16:33N 40°37' E 022°54'0 0.0
2016-Nov-26 15:33N 40°37' E 022°54'0 0.0
2016-Nov-26 14:33N 40°37' E 022°54'0 0.0
2016-Nov-26 13:33N 40°37' E 022°54'0 0.0
2016-Nov-26 12:33N 40°37' E 022°54'0 0.0
2016-Nov-26 11:33N 40°37' E 022°54'0 0.0
2016-Nov-26 10:33N 40°37' E 022°54'0 0.0
2016-Nov-26 09:33N 40°37' E 022°54'0 0.3
2016-Nov-26 08:33N 40°37' E 022°54'0 0.1
2016-Nov-26 07:33N 40°37' E 022°54'0 0.3
2016-Nov-26 06:33N 40°37' E 022°54'1 1.0
2016-Nov-26 05:34N 40°38' E 022°53'0 0.4
2016-Nov-26 04:33N 40°38' E 022°53'0 0.0
2016-Nov-26 03:33N 40°38' E 022°53'0 0.0
2016-Nov-26 02:33N 40°38' E 022°53'0 0.0
2016-Nov-26 01:33N 40°38' E 022°53'0 0.0
2016-Nov-26 00:33N 40°38' E 022°53'0 0.0
2016-Nov-25 23:33N 40°38' E 022°53'0 0.0
2016-Nov-25 22:33N 40°38' E 022°53'0 0.0
2016-Nov-25 21:33N 40°38' E 022°53'0 0.0
2016-Nov-25 20:33N 40°38' E 022°53'0 0.0
2016-Nov-25 19:33N 40°38' E 022°53'0 0.0
2016-Nov-25 18:33N 40°38' E 022°53'0 0.0
2016-Nov-25 17:33N 40°38' E 022°53'0 0.0
2016-Nov-25 16:33N 40°38' E 022°53'0 0.0
2016-Nov-25 15:33N 40°38' E 022°53'0 0.0
2016-Nov-25 14:33N 40°38' E 022°53'0 0.0
2016-Nov-25 13:33N 40°38' E 022°53'0 0.0
2016-Nov-25 12:33N 40°38' E 022°53'0 0.0
2016-Nov-25 11:33N 40°38' E 022°53'1 1.0
2016-Nov-25 10:33N 40°38' E 022°54'1 1.0
2016-Nov-25 09:34N 40°37' E 022°53'2 1.6
2016-Nov-25 08:33N 40°38' E 022°55'0 0.3
2016-Nov-25 07:33N 40°38' E 022°56'0 0.0
2016-Nov-25 06:33N 40°38' E 022°56'0 0.0
2016-Nov-25 05:33N 40°38' E 022°56'0 0.0
2016-Nov-25 04:33N 40°38' E 022°56'0 0.0
2016-Nov-25 03:33N 40°38' E 022°56'0 0.0
2016-Nov-25 02:33N 40°38' E 022°56'0 0.0
2016-Nov-25 01:33N 40°38' E 022°56'0 0.0
2016-Nov-25 00:33N 40°38' E 022°56'0 0.0
2016-Nov-24 23:33N 40°38' E 022°56'0 0.0
2016-Nov-24 22:33N 40°38' E 022°56'0 0.0
2016-Nov-24 21:33N 40°38' E 022°56'0 0.0
2016-Nov-24 20:33N 40°38' E 022°56'0 0.0
2016-Nov-24 19:33N 40°38' E 022°56'0 0.0
2016-Nov-24 18:33N 40°38' E 022°56'0 0.0
2016-Nov-24 11:23N 40°38' E 022°56'0 0.0
2016-Nov-24 10:33N 40°38' E 022°56'0 0.0
2016-Nov-24 09:33N 40°38' E 022°56'1 1.3
2016-Nov-24 08:31N 40°38' E 022°54'0 0.2
2016-Nov-24 07:33N 40°38' E 022°54'1 0.6
2016-Nov-24 06:33N 40°38' E 022°53'0 0.2
2016-Nov-24 05:33N 40°38' E 022°53'2 2.0
2016-Nov-24 04:33N 40°38' E 022°56'0 0.0
2016-Nov-24 03:33N 40°38' E 022°56'0 0.0
2016-Nov-24 02:33N 40°38' E 022°56'0 0.0
2016-Nov-24 01:33N 40°38' E 022°56'0 0.0
2016-Nov-24 00:33N 40°38' E 022°56'0 0.0
2016-Nov-23 23:33N 40°38' E 022°56'0 0.0
2016-Nov-23 22:33N 40°38' E 022°56'1 1.0
2016-Nov-23 21:33N 40°38' E 022°54'1 1.0
2016-Nov-23 20:33N 40°38' E 022°56'0 0.0
2016-Nov-23 19:33N 40°38' E 022°56'0 0.0
2016-Nov-23 18:33N 40°38' E 022°56'0 0.0
2016-Nov-23 15:33N 40°38' E 022°56'0 0.0
2016-Nov-23 14:34N 40°38' E 022°56'0 0.0
2016-Nov-23 13:34N 40°38' E 022°56'0 0.0
2016-Nov-23 12:33N 40°38' E 022°56'2 1.7
2016-Nov-23 11:33N 40°38' E 022°53'1 0.5
2016-Nov-23 10:33N 40°38' E 022°53'0 0.0
2016-Nov-23 09:33N 40°38' E 022°53'0 0.0
2016-Nov-23 08:33N 40°38' E 022°53'0 0.0
2016-Nov-23 07:33N 40°38' E 022°53'0 0.0
2016-Nov-23 06:34N 40°38' E 022°53'2 0.7
2016-Nov-23 03:34N 40°38' E 022°56'0 0.0
2016-Nov-23 02:34N 40°38' E 022°56'0 0.0
2016-Nov-23 00:33N 40°38' E 022°56'0 0.0
2016-Nov-22 23:33N 40°38' E 022°56'0 0.0
2016-Nov-22 22:33N 40°38' E 022°56'0 0.0
2016-Nov-22 20:33N 40°38' E 022°56'0 0.0
2016-Nov-22 19:33N 40°38' E 022°56'0 0.0
2016-Nov-22 17:33N 40°38' E 022°56'0 0.0
2016-Nov-22 16:34N 40°38' E 022°56'0 0.0
2016-Nov-22 15:33N 40°38' E 022°56'0 0.0
2016-Nov-22 14:34N 40°38' E 022°56'0 0.0
2016-Nov-22 13:34N 40°38' E 022°56'2 0.6
2016-Nov-22 10:33N 40°38' E 022°53'0 0.2
2016-Nov-22 09:33N 40°38' E 022°53'0 0.0
2016-Nov-22 08:33N 40°38' E 022°53'0 0.0
2016-Nov-22 07:33N 40°38' E 022°53'0 0.0
2016-Nov-22 05:33N 40°38' E 022°53'0 0.0
2016-Nov-22 04:33N 40°38' E 022°53'2 2.0
2016-Nov-22 03:33N 40°38' E 022°56'0 0.0
2016-Nov-22 02:33N 40°38' E 022°56'0 0.0
2016-Nov-21 23:33N 40°38' E 022°56'0 0.0
2016-Nov-21 21:33N 40°38' E 022°56'0 0.0
2016-Nov-21 14:33N 40°38' E 022°56'  

Dump ship's entire track history